Barra da Estiva, Brazil
Current Conditions -  °F | °C
As of 10:15 PM on Saturday 22 Nov 2014 (Local Time) from SBQV Reporting Station
Clear Clear  
Wind Chill: 68°   Ceiling: Unl
Heat Index: 68°   Visibility: 6mi
Dew Point: 66°   Wind: 10mph
Humidity: 94%   Direction: 80°E
Pressure: 30.09"   Gusts: NA
Location:  13.63°S, 41.33°W
Report Text: SBQV 230115Z 08009KT CAVOK 20/19 Q1019
Loading
Personal Weather Stations






























Interactive Weather Map New forecast layout! Learn more

10-Day Weather Forecast

Advertisements
Track Severe Weather on mobile